Kipawa, Canada
Current Conditions -  °F | °C
As of 8:00 PM on Friday 24 Oct 2014 (Local Time) from CYYB Reporting Station
Overcast Overcast  
Wind Chill: 45°   Ceiling: 2000
Heat Index: 48°   Visibility: 15mi
Dew Point: 39°   Wind: 7mph
Humidity: 71%   Direction: 250°WSW
Pressure: 29.89"   Gusts: NA
Location:  46.77°N, 78.98°W
Report Text: CYYB 250000Z 25006KT 15SM OVC020 09/04 A2989 RMK SC8 SLP133
Loading
Personal Weather Stations






























Interactive Weather Map
Tropical Storm Tracking
New forecast layout! Learn more

10-Day Weather Forecast

Advertisements
Track Severe Weather on mobile